Time;durP1;ratioP1;P1;durP2;ratioP2;P2;SDS_P1;SDS_P2;PMS_P1;PMS_P2;Temp;Humidity;BMP_temperature;BMP_pressure;BME280_temperature;BME280_humidity;BME280_pressure;Samples;Min_cycle;Max_cycle;Signal;HPM_P1;HPM_P2
2022/04/23 00:00:33;;;;;;;27.95;18.48;;;;;;;10.17;60.83;99908.34;5073662;28;20035;-55
2022/04/23 00:02:59;;;;;;;28.30;18.92;;;;;;;10.28;60.89;99928.94;5073873;28;20044;-54
2022/04/23 00:05:25;;;;;;;27.90;18.73;;;;;;;10.28;60.86;99928.94;5055727;28;20418;-58
2022/04/23 00:07:50;;;;;;;26.13;19.63;;;;;;;10.24;60.85;99919.44;5073386;28;20017;-54
2022/04/23 00:10:16;;;;;;;25.25;19.05;;;;;;;10.31;60.66;99923.34;5072943;28;20058;-55
2022/04/23 00:12:43;;;;;;;25.42;18.63;;;;;;;10.35;60.38;99916.75;5073723;28;20039;-53
2022/04/23 00:15:09;;;;;;;30.13;20.20;;;;;;;10.32;60.53;99914.31;5073594;28;20037;-57
2022/04/23 00:17:35;;;;;;;27.08;19.63;;;;;;;10.30;60.78;99916.28;5073138;28;20042;-56
2022/04/23 00:20:00;;;;;;;31.08;20.55;;;;;;;10.33;60.91;99921.38;5072835;28;20036;-56
2022/04/23 00:22:26;;;;;;;27.90;18.98;;;;;;;10.33;60.11;99916.03;5073625;28;20052;-52
2022/04/23 00:24:51;;;;;;;29.45;20.10;;;;;;;10.39;60.19;99918.25;5073129;28;20585;-54
2022/04/23 00:27:17;;;;;;;29.27;19.40;;;;;;;10.42;60.14;99922.53;5073080;28;20040;-55
2022/04/23 00:29:42;;;;;;;28.80;19.15;;;;;;;10.48;60.05;99911.31;5073195;28;20043;-53
2022/04/23 00:32:08;;;;;;;27.08;19.98;;;;;;;10.51;60.01;99928.97;5055248;28;20039;-52
2022/04/23 00:34:34;;;;;;;29.80;19.85;;;;;;;10.50;59.83;99914.75;5072297;28;20036;-53
2022/04/23 00:37:00;;;;;;;29.17;20.02;;;;;;;10.53;59.99;99910.97;5072370;28;20504;-53
2022/04/23 00:39:26;;;;;;;31.92;20.20;;;;;;;10.56;60.23;99916.06;5072704;28;20112;-53
2022/04/23 00:41:52;;;;;;;28.77;20.17;;;;;;;10.58;59.84;99919.47;5072747;28;20361;-57
2022/04/23 00:44:18;;;;;;;26.98;20.25;;;;;;;10.59;59.92;99924.72;5053744;28;20032;-56
2022/04/23 00:46:45;;;;;;;29.83;20.27;;;;;;;10.57;59.79;99917.78;5072364;28;20043;-55
2022/04/23 00:49:11;;;;;;;26.08;19.83;;;;;;;10.55;59.54;99906.34;5072488;28;20124;-51
2022/04/23 00:51:39;;;;;;;31.67;20.20;;;;;;;10.66;59.78;99910.84;5072287;28;20463;-55
2022/04/23 00:54:09;;;;;;;28.58;19.98;;;;;;;10.62;59.47;99919.13;5072252;28;20392;-55
2022/04/23 00:56:36;;;;;;;28.80;21.10;;;;;;;10.61;59.80;99908.56;5054482;28;20035;-56
2022/04/23 00:59:08;;;;;;;30.10;20.77;;;;;;;10.70;59.61;99910.50;5072637;28;20052;-53
2022/04/23 01:01:34;;;;;;;30.67;19.40;;;;;;;10.61;59.80;99905.88;5072623;28;20470;-53
2022/04/23 01:04:02;;;;;;;34.13;20.08;;;;;;;10.45;59.42;99880.31;5072629;28;20460;-57
2022/04/23 01:06:32;;;;;;;31.20;20.20;;;;;;;10.69;59.64;99915.94;5073058;28;20028;-57
2022/04/23 01:08:58;;;;;;;33.63;20.13;;;;;;;10.69;59.32;99910.59;5072188;28;20031;-57
2022/04/23 01:11:24;;;;;;;32.80;20.10;;;;;;;10.68;59.52;99909.75;5072533;28;20025;-55
2022/04/23 01:13:49;;;;;;;32.25;20.45;;;;;;;10.67;59.48;99902.72;5072550;28;20032;-55
2022/04/23 01:16:15;;;;;;;30.98;20.13;;;;;;;10.72;59.53;99905.00;5071907;28;20107;-54
2022/04/23 01:18:42;;;;;;;35.95;20.65;;;;;;;10.72;59.38;99907.66;5071591;28;20031;-54
2022/04/23 01:21:10;;;;;;;28.65;19.92;;;;;;;10.75;59.63;99910.13;5071834;28;20071;-57
2022/04/23 01:23:41;;;;;;;30.55;20.38;;;;;;;10.80;59.76;99902.56;5071858;28;20090;-55
2022/04/23 01:26:08;;;;;;;33.35;19.73;;;;;;;10.73;59.38;99904.88;5071425;28;20502;-52
2022/04/23 01:28:35;;;;;;;36.80;19.95;;;;;;;10.76;59.45;99907.31;5071962;28;20068;-53
2022/04/23 01:31:03;;;;;;;32.70;20.80;;;;;;;10.79;59.33;99905.34;5054172;28;20483;-57
2022/04/23 01:33:29;;;;;;;32.72;20.23;;;;;;;10.75;59.37;99894.06;5071574;28;20024;-57
2022/04/23 01:35:54;;;;;;;32.50;20.13;;;;;;;10.77;59.25;99892.94;5071491;28;20055;-56
2022/04/23 01:38:20;;;;;;;31.35;19.80;;;;;;;10.81;59.17;99898.06;5072041;28;20123;-55
2022/04/23 01:40:46;;;;;;;31.88;19.80;;;;;;;10.79;59.30;99898.19;5071615;28;20059;-55
2022/04/23 01:43:11;;;;;;;28.23;19.73;;;;;;;10.82;59.17;99899.75;5053450;28;20028;-55
2022/04/23 01:45:38;;;;;;;31.33;20.45;;;;;;;10.84;59.28;99898.66;5071188;28;20408;-52
2022/04/23 01:48:04;;;;;;;34.05;19.50;;;;;;;10.84;59.36;99901.34;5071817;28;20035;-55
2022/04/23 01:50:30;;;;;;;30.70;19.73;;;;;;;10.86;59.18;99894.03;5071793;28;20021;-52
2022/04/23 01:52:55;;;;;;;29.98;19.85;;;;;;;10.87;59.10;99894.91;5053273;28;20394;-55
2022/04/23 01:55:21;;;;;;;29.63;20.08;;;;;;;10.87;58.96;99898.41;5053407;28;20029;-55
2022/04/23 01:57:46;;;;;;;33.47;20.67;;;;;;;10.90;59.28;99900.00;5071592;28;20110;-56
2022/04/23 02:00:15;;;;;;;35.17;21.15;;;;;;;10.91;59.27;99899.88;5071638;28;20530;-58
2022/04/23 02:02:44;;;;;;;33.88;20.50;;;;;;;10.93;59.54;99904.25;5071021;28;20024;-55
2022/04/23 02:05:10;;;;;;;32.97;20.92;;;;;;;10.94;59.36;99898.78;5070972;28;20087;-54
2022/04/23 02:07:40;;;;;;;36.05;21.23;;;;;;;10.94;59.56;99903.25;5071521;28;20446;-53
2022/04/23 02:10:13;;;;;;;35.40;20.58;;;;;;;11.00;59.65;99902.78;5071506;28;20028;-52
2022/04/23 02:12:40;;;;;;;29.75;20.35;;;;;;;10.94;59.42;99904.13;5070804;28;20130;-56
2022/04/23 02:15:07;;;;;;;31.30;19.90;;;;;;;10.93;59.56;99904.25;5071089;28;20029;-57
2022/04/23 02:17:37;;;;;;;35.60;20.10;;;;;;;10.90;59.68;99900.00;5071249;28;20043;-59
2022/04/23 02:20:11;;;;;;;34.00;19.83;;;;;;;10.99;60.13;99903.78;5071328;28;20037;-55
2022/04/23 02:22:38;;;;;;;34.75;21.08;;;;;;;10.93;61.06;99912.28;5070014;28;20125;-57
2022/04/23 02:25:05;;;;;;;40.13;21.25;;;;;;;10.90;62.32;99914.22;5071003;28;20036;-52
2022/04/23 02:27:42;;;;;;;33.58;20.58;;;;;;;10.97;62.15;99909.25;5071532;28;20043;-57
2022/04/23 02:30:08;;;;;;;36.45;20.63;;;;;;;10.85;62.81;99916.44;5052758;28;20041;-56
2022/04/23 02:32:34;;;;;;;33.15;20.10;;;;;;;10.81;63.37;99912.31;5070543;28;20028;-55
2022/04/23 02:34:59;;;;;;;33.22;20.30;;;;;;;10.77;63.70;99909.00;5071093;28;20405;-57
2022/04/23 02:37:30;;;;;;;32.55;21.33;;;;;;;10.75;64.25;99913.66;5070384;28;20036;-59
2022/04/23 02:39:56;;;;;;;33.55;21.35;;;;;;;10.62;65.18;99907.59;5070815;28;20040;-57
2022/04/23 02:42:22;;;;;;;35.08;21.45;;;;;;;10.63;65.52;99911.97;5070471;28;20043;-56
2022/04/23 02:44:48;;;;;;;30.83;21.77;;;;;;;10.59;65.52;99919.38;5070829;28;20032;-56
2022/04/23 02:47:14;;;;;;;35.60;20.92;;;;;;;10.54;65.67;99910.00;5070563;28;20460;-54
2022/04/23 02:49:39;;;;;;;36.47;21.67;;;;;;;10.53;65.56;99903.81;5070496;28;20121;-55
2022/04/23 02:52:05;;;;;;;36.60;21.98;;;;;;;10.51;65.94;99904.88;5070582;28;20459;-57
2022/04/23 02:54:30;;;;;;;31.02;21.02;;;;;;;10.45;66.37;99903.53;5052778;28;20040;-61
2022/04/23 02:56:56;;;;;;;34.60;21.45;;;;;;;10.43;66.73;99910.84;5052470;28;20021;-55
2022/04/23 02:59:21;;;;;;;38.15;22.70;;;;;;;10.39;66.94;99896.84;5070509;28;20066;-57
2022/04/23 03:01:47;;;;;;;34.28;21.60;;;;;;;10.37;66.85;99898.78;5052665;28;20031;-52
2022/04/23 03:04:15;;;;;;;37.15;21.90;;;;;;;10.39;66.56;99910.22;5070268;28;20056;-56
2022/04/23 03:06:40;;;;;;;35.42;22.83;;;;;;;10.33;67.06;99906.19;5070678;28;20035;-59
2022/04/23 03:09:06;;;;;;;34.28;22.42;;;;;;;10.32;67.54;99903.63;5052689;28;20190;-57
2022/04/23 03:11:32;;;;;;;34.38;23.23;;;;;;;10.31;67.66;99907.28;5070555;28;20035;-58
2022/04/23 03:14:03;;;;;;;36.33;21.58;;;;;;;10.31;68.20;99901.91;5070113;28;20127;-54
2022/04/23 03:16:29;;;;;;;36.63;22.83;;;;;;;10.33;68.34;99898.16;5070796;28;20032;-61
2022/04/23 03:18:56;;;;;;;29.90;22.30;;;;;;;10.35;68.67;99903.38;5070379;28;20102;-57
2022/04/23 03:21:22;;;;;;;36.25;23.52;;;;;;;10.37;68.42;99901.47;5069792;28;20131;-51
2022/04/23 03:23:48;;;;;;;36.97;22.73;;;;;;;10.40;68.48;99895.91;5070700;28;20139;-59
2022/04/23 03:26:13;;;;;;;36.13;22.63;;;;;;;10.48;68.37;99903.28;5070713;28;20041;-56
2022/04/23 03:28:39;;;;;;;35.28;23.20;;;;;;;10.50;67.45;99893.34;5070195;28;20078;-58
2022/04/23 03:31:04;;;;;;;33.35;23.10;;;;;;;10.55;67.02;99903.66;5070309;28;20399;-58
2022/04/23 03:33:30;;;;;;;34.55;22.35;;;;;;;10.54;66.52;99899.28;5073006;28;20036;-62
2022/04/23 03:35:56;;;;;;;39.90;22.80;;;;;;;10.57;67.01;99904.41;5074299;28;20085;-58
2022/04/23 03:38:21;;;;;;;31.63;21.80;;;;;;;10.56;66.89;99900.88;5073642;28;20033;-52
2022/04/23 03:40:53;;;;;;;37.65;23.15;;;;;;;10.63;66.72;99896.72;5072756;28;20452;-61
2022/04/23 03:43:23;;;;;;;35.05;22.52;;;;;;;10.62;66.93;99891.53;5073568;28;20028;-57
2022/04/23 03:45:49;;;;;;;36.17;22.80;;;;;;;10.72;67.16;99905.00;5072972;28;20039;-56
2022/04/23 03:48:14;;;;;;;36.47;22.58;;;;;;;10.60;67.38;99874.69;5073819;28;20040;-56
2022/04/23 03:50:41;;;;;;;39.13;22.92;;;;;;;10.74;66.93;99901.22;5074000;28;20464;-58
2022/04/23 03:53:06;;;;;;;32.05;22.45;;;;;;;10.75;66.91;99900.25;5074404;28;20052;-57
2022/04/23 03:55:32;;;;;;;36.17;21.55;;;;;;;10.80;67.12;99904.38;5074365;28;20495;-58
2022/04/23 03:57:57;;;;;;;35.17;22.25;;;;;;;10.84;66.80;99904.03;5073880;28;20081;-55
2022/04/23 04:00:23;;;;;;;30.58;21.88;;;;;;;10.89;66.77;99900.97;5073643;28;20483;-51
2022/04/23 04:02:50;;;;;;;34.45;22.70;;;;;;;10.91;66.89;99899.03;5073721;28;20032;-58
2022/04/23 04:05:17;;;;;;;33.53;23.10;;;;;;;10.93;67.18;99902.44;5055960;28;20036;-56
2022/04/23 04:07:44;;;;;;;33.80;21.88;;;;;;;10.99;67.37;99901.94;5073196;28;20113;-52
2022/04/23 04:10:12;;;;;;;33.25;22.65;;;;;;;11.04;66.64;99898.88;5055148;28;20024;-56
2022/04/23 04:12:38;;;;;;;38.58;23.48;;;;;;;11.08;66.19;99896.78;5073685;28;20032;-53
2022/04/23 04:15:05;;;;;;;37.13;22.52;;;;;;;11.09;66.07;99885.94;5073640;28;20453;-56
2022/04/23 04:17:31;;;;;;;37.97;23.15;;;;;;;11.12;65.94;99893.72;5073134;28;20106;-52
2022/04/23 04:19:56;;;;;;;35.53;22.60;;;;;;;11.13;65.90;99889.25;5073132;28;20163;-54
2022/04/23 04:22:22;;;;;;;33.13;22.02;;;;;;;11.14;66.05;99889.09;5046965;28;20037;-55
2022/04/23 04:24:48;;;;;;;35.97;22.65;;;;;;;11.14;66.34;99890.94;5069983;28;20044;-54
2022/04/23 04:27:14;;;;;;;33.88;21.27;;;;;;;11.22;66.26;99895.69;5072719;28;20025;-53
2022/04/23 04:29:40;;;;;;;32.70;21.55;;;;;;;11.24;66.25;99893.72;5073008;28;20051;-62
2022/04/23 04:32:07;;;;;;;35.85;22.63;;;;;;;11.27;66.17;99891.63;5073114;28;20429;-58
2022/04/23 04:34:33;;;;;;;30.30;21.83;;;;;;;11.36;66.26;99902.56;5072629;28;20039;-55
2022/04/23 04:37:08;;;;;;;34.45;22.25;;;;;;;11.46;65.63;99900.81;5072937;28;20116;-51
2022/04/23 04:39:35;;;;;;;36.38;22.67;;;;;;;11.46;65.21;99906.19;5072686;28;20061;-57
2022/04/23 04:42:01;;;;;;;35.80;22.63;;;;;;;11.47;64.97;99906.06;5072650;28;20039;-53
2022/04/23 04:44:26;;;;;;;34.03;22.73;;;;;;;11.34;64.84;99874.06;5071735;28;20028;-55
2022/04/23 04:46:52;;;;;;;40.17;23.55;;;;;;;11.56;64.40;99898.22;5072539;28;20031;-54
2022/04/23 04:49:18;;;;;;;37.80;23.63;;;;;;;11.58;64.85;99897.13;5072754;28;20392;-58
2022/04/23 04:51:44;;;;;;;38.63;22.75;;;;;;;11.63;64.51;99910.13;5065821;28;20029;-54
2022/04/23 04:54:09;;;;;;;37.58;23.38;;;;;;;11.60;64.20;99902.34;5055641;28;20044;-56
2022/04/23 04:56:35;;;;;;;35.15;22.90;;;;;;;11.61;64.68;99898.69;5062123;28;20048;-54
2022/04/23 04:59:01;;;;;;;38.83;22.27;;;;;;;11.66;64.54;99895.63;5055735;28;20973;-57
2022/04/23 05:01:27;;;;;;;35.15;22.38;;;;;;;11.70;64.12;99900.59;5051887;28;20029;-55
2022/04/23 05:03:53;;;;;;;35.95;23.58;;;;;;;11.72;64.74;99897.78;5051217;28;20036;-56
2022/04/23 05:06:19;;;;;;;33.45;22.17;;;;;;;11.70;64.59;99902.41;5052085;28;20136;-59
2022/04/23 05:08:45;;;;;;;42.55;23.83;;;;;;;11.72;64.88;99905.81;5052041;28;20469;-50
2022/04/23 05:11:11;;;;;;;37.90;23.33;;;;;;;11.72;64.23;99904.00;5052798;28;20033;-62
2022/04/23 05:13:38;;;;;;;40.25;23.70;;;;;;;11.67;64.15;99895.47;5052471;28;20427;-57
2022/04/23 05:16:07;;;;;;;42.63;23.50;;;;;;;11.73;64.16;99905.72;5033890;28;20086;-61
2022/04/23 05:18:34;;;;;;;42.10;23.98;;;;;;;11.70;64.71;99905.09;5052287;28;20033;-55
2022/04/23 05:20:59;;;;;;;40.85;24.27;;;;;;;11.66;64.90;99893.78;5051878;28;20048;-62
2022/04/23 05:23:26;;;;;;;37.60;23.58;;;;;;;11.69;64.23;99904.25;5051223;28;20503;-63
2022/04/23 05:25:51;;;;;;;40.65;24.45;;;;;;;11.70;63.77;99905.09;5052015;28;20058;-62
2022/04/23 05:28:17;;;;;;;36.35;23.38;;;;;;;11.66;63.81;99903.66;5034591;28;20041;-63
2022/04/23 05:30:44;;;;;;;38.22;23.17;;;;;;;11.69;63.86;99914.97;5052623;28;20029;-62
2022/04/23 05:33:10;;;;;;;40.70;22.85;;;;;;;11.68;63.51;99904.38;5052218;28;20040;-64
2022/04/23 05:35:36;;;;;;;35.15;22.38;;;;;;;11.70;63.20;99911.34;5051880;28;20089;-63
2022/04/23 05:38:02;;;;;;;34.63;22.88;;;;;;;11.67;63.07;99897.31;5051892;28;20033;-61
2022/04/23 05:40:27;;;;;;;31.33;21.00;;;;;;;11.67;62.88;99894.66;5034269;28;20040;-63
2022/04/23 05:42:55;;;;;;;38.35;22.90;;;;;;;11.70;62.62;99900.59;5051981;28;20028;-61
2022/04/23 05:45:22;;;;;;;36.90;22.85;;;;;;;11.57;62.99;99875.78;5033927;28;20036;-61
2022/04/23 05:47:48;;;;;;;37.15;23.80;;;;;;;11.78;63.11;99898.13;5052204;28;20483;-61
2022/04/23 05:50:13;;;;;;;35.53;23.10;;;;;;;11.87;63.19;99890.25;5052208;28;20029;-61
2022/04/23 05:52:38;;;;;;;36.63;24.63;;;;;;;11.90;62.90;99887.31;5051356;28;20025;-62
2022/04/23 05:55:05;;;;;;;35.03;23.10;;;;;;;11.92;62.82;99894.25;5051621;28;20056;-63
2022/04/23 05:57:31;;;;;;;36.60;23.13;;;;;;;11.90;62.12;99881.94;5051786;28;20055;-62
2022/04/23 05:59:57;;;;;;;34.58;22.35;;;;;;;12.01;60.71;99879.25;5051033;28;20089;-61
2022/04/23 06:02:22;;;;;;;35.40;23.17;;;;;;;11.90;61.52;99874.75;5033889;28;20061;-61
2022/04/23 06:04:49;;;;;;;34.05;22.17;;;;;;;12.11;60.09;99886.50;5051093;28;20031;-61
2022/04/23 06:07:15;;;;;;;33.22;21.42;;;;;;;12.31;59.56;99882.94;5051727;28;20036;-61
2022/04/23 06:09:41;;;;;;;26.70;20.48;;;;;;;12.74;58.13;99862.16;5051791;28;20079;-58
2022/04/23 06:12:08;;;;;;;34.47;20.42;;;;;;;13.28;55.83;99861.84;5051723;28;20028;-62
2022/04/23 06:14:33;;;;;;;30.48;20.88;;;;;;;13.84;54.41;99864.81;5051098;28;20067;-62
2022/04/23 06:16:59;;;;;;;27.67;20.55;;;;;;;14.44;53.07;99860.94;5033551;28;20132;-62
2022/04/23 06:19:24;;;;;;;29.67;20.77;;;;;;;15.12;50.38;99856.22;5051365;28;20057;-62
2022/04/23 06:21:50;;;;;;;31.73;20.67;;;;;;;15.89;47.58;99866.53;5050808;28;20049;-62
2022/04/23 06:24:16;;;;;;;29.52;20.10;;;;;;;17.30;45.27;99869.88;5033435;28;20496;-60
2022/04/23 06:26:42;;;;;;;30.60;19.27;;;;;;;19.96;39.71;99871.66;5032621;28;20073;-61
2022/04/23 06:29:07;;;;;;;30.00;19.73;;;;;;;22.54;34.08;99875.13;5050761;28;20037;-61
2022/04/23 06:31:32;;;;;;;34.53;19.58;;;;;;;24.38;30.54;99868.75;5033336;28;20053;-63
2022/04/23 06:33:58;;;;;;;31.02;20.42;;;;;;;25.82;28.09;99869.53;5050764;28;20037;-62
2022/04/23 06:36:23;;;;;;;26.83;19.58;;;;;;;26.78;26.61;99869.22;5050592;28;20245;-61
2022/04/23 06:38:49;;;;;;;29.08;20.38;;;;;;;25.92;27.45;99847.06;5050432;28;20032;-61
2022/04/23 06:41:14;;;;;;;24.40;19.70;;;;;;;25.17;28.55;99874.16;5050492;28;20439;-61
2022/04/23 06:43:40;;;;;;;31.25;20.67;;;;;;;25.00;28.48;99876.56;5032709;28;20127;-61
2022/04/23 06:46:05;;;;;;;31.27;20.83;;;;;;;24.12;29.55;99873.22;5050482;28;20090;-63
2022/04/23 06:48:31;;;;;;;29.10;20.77;;;;;;;23.28;30.58;99870.81;5050239;28;20028;-62
2022/04/23 06:50:56;;;;;;;26.20;20.30;;;;;;;23.00;31.30;99877.22;5050711;28;20025;-63
2022/04/23 06:53:22;;;;;;;28.92;20.90;;;;;;;22.43;31.68;99882.81;5050242;28;20128;-62
2022/04/23 06:55:47;;;;;;;28.85;21.00;;;;;;;21.76;33.14;99879.59;5050573;28;20059;-62
2022/04/23 06:58:15;;;;;;;27.77;20.85;;;;;;;21.19;33.86;99882.13;5050773;28;20108;-62
2022/04/23 07:00:41;;;;;;;26.77;21.02;;;;;;;20.72;34.33;99879.66;5050354;28;20052;-62
2022/04/23 07:03:07;;;;;;;25.73;20.23;;;;;;;20.18;35.19;99878.06;5050018;28;20065;-62
2022/04/23 07:05:33;;;;;;;30.98;22.38;;;;;;;19.53;36.30;99870.28;5050448;28;20029;-62
2022/04/23 07:08:03;;;;;;;28.73;21.35;;;;;;;19.14;38.01;99880.19;5034798;28;20365;-61
2022/04/23 07:10:30;;;;;;;26.92;21.98;;;;;;;18.60;38.61;99878.25;5054440;28;20041;-62
2022/04/23 07:12:57;;;;;;;30.27;20.80;;;;;;;18.14;38.41;99877.00;5054519;28;20056;-63
2022/04/23 07:15:24;;;;;;;22.15;19.13;;;;;;;17.86;38.90;99869.22;5054864;28;20056;-62
2022/04/23 07:17:50;;;;;;;24.02;18.48;;;;;;;20.44;34.57;99872.16;5054887;28;20104;-62
2022/04/23 07:20:17;;;;;;;28.65;20.73;;;;;;;24.79;27.11;99867.59;5054400;28;20489;-62
2022/04/23 07:25:35;;;;;;;19.80;15.90;;;;;;;30.69;19.37;99864.19;5055027;28;20083;-61
2022/04/23 07:28:01;;;;;;;25.25;17.58;;;;;;;31.57;17.83;99853.25;5054273;28;20532;-62
2022/04/23 07:30:27;;;;;;;19.40;17.25;;;;;;;30.21;19.85;99858.25;5054079;28;20104;-61
2022/04/23 07:32:53;;;;;;;20.38;16.52;;;;;;;27.86;22.18;99851.19;5054417;28;20033;-62
2022/04/23 07:38:14;;;;;;;22.25;17.48;;;;;;;24.24;27.87;99851.53;5054226;28;20040;-63
2022/04/23 07:40:40;;;;;;;23.42;18.20;;;;;;;22.41;29.28;99854.03;5053837;28;20039;-61
2022/04/23 07:43:14;;;;;;;22.63;17.80;;;;;;;21.50;31.67;99859.22;5054003;28;20029;-64
2022/04/23 07:45:43;;;;;;;20.63;17.80;;;;;;;20.15;32.66;99849.38;5054361;28;20036;-62
2022/04/23 07:48:10;;;;;;;21.52;17.95;;;;;;;19.44;34.02;99860.50;5036081;28;20509;-62
2022/04/23 07:50:37;;;;;;;25.70;20.08;;;;;;;18.70;35.62;99859.88;5053655;28;20029;-63
2022/04/23 07:53:04;;;;;;;24.70;21.00;;;;;;;18.06;37.20;99861.63;5053972;28;20393;-62
2022/04/23 07:55:35;;;;;;;30.08;22.65;;;;;;;17.57;38.32;99858.91;5036092;28;20104;-62
2022/04/23 07:58:04;;;;;;;27.75;21.02;;;;;;;17.12;38.79;99852.91;5035967;28;20025;-63
2022/04/23 08:00:31;;;;;;;28.40;20.65;;;;;;;16.88;39.76;99849.13;5053623;28;20057;-62
2022/04/23 08:03:02;;;;;;;26.27;21.30;;;;;;;16.90;39.67;99852.53;5053683;28;20033;-62
2022/04/23 08:05:28;;;;;;;26.15;20.08;;;;;;;17.20;38.74;99848.38;5036008;28;20033;-62
2022/04/23 08:07:54;;;;;;;29.90;20.77;;;;;;;17.67;38.41;99847.91;5053648;28;20029;-62
2022/04/23 08:10:19;;;;;;;26.83;21.17;;;;;;;18.03;37.37;99815.91;5053593;28;20032;-62
2022/04/23 08:12:45;;;;;;;30.92;21.90;;;;;;;18.94;36.01;99841.81;5053563;28;20033;-61
2022/04/23 08:15:12;;;;;;;28.35;21.92;;;;;;;19.67;33.95;99848.78;5053276;28;20120;-63
2022/04/23 08:17:38;;;;;;;28.98;22.05;;;;;;;20.02;33.02;99855.44;5053248;28;20154;-62
2022/04/23 08:20:04;;;;;;;30.60;22.23;;;;;;;20.09;33.13;99841.97;5051965;28;20111;-61
2022/04/23 08:22:29;;;;;;;35.10;22.17;;;;;;;20.11;33.15;99839.91;5052814;28;20557;-64
2022/04/23 08:24:56;;;;;;;34.33;23.35;;;;;;;19.94;33.72;99840.06;5053092;28;20131;-62
2022/04/23 08:27:22;;;;;;;32.95;22.52;;;;;;;19.72;33.88;99830.06;5053391;28;20025;-63
2022/04/23 08:32:31;;;;;;;29.45;20.90;;;;;;;19.87;33.58;99838.25;5053206;28;20074;-61
2022/04/23 08:34:57;;;;;;;29.90;23.63;;;;;;;19.98;33.11;99835.13;5052590;28;20037;-62
2022/04/23 08:37:24;;;;;;;29.17;21.38;;;;;;;19.97;32.83;99832.56;5053074;28;20041;-62
2022/04/23 08:39:50;;;;;;;26.75;23.08;;;;;;;20.01;33.34;99836.59;5053285;28;20135;-63
2022/04/23 08:42:17;;;;;;;30.90;22.77;;;;;;;20.26;33.04;99837.19;5052876;28;20048;-63
2022/04/23 08:44:44;;;;;;;32.88;23.52;;;;;;;20.33;33.09;99835.41;5052483;28;20103;-60
2022/04/23 08:47:11;;;;;;;30.98;23.38;;;;;;;20.42;33.27;99835.34;5052885;28;20029;-62
2022/04/23 08:49:40;;;;;;;31.88;22.48;;;;;;;20.54;32.97;99838.41;5052387;28;20036;-61
2022/04/23 08:52:15;;;;;;;33.10;23.90;;;;;;;20.34;33.21;99811.78;5052444;28;20036;-61
2022/04/23 08:54:41;;;;;;;30.73;23.20;;;;;;;20.13;32.50;99832.41;5052599;28;20087;-64
2022/04/23 08:57:07;;;;;;;33.55;23.58;;;;;;;19.97;32.65;99829.84;5052316;28;20114;-62
2022/04/23 08:59:34;;;;;;;24.77;20.98;;;;;;;19.84;32.04;99825.03;5052059;28;20480;-62
2022/04/23 09:02:00;;;;;;;24.52;19.00;;;;;;;19.82;31.90;99822.50;5052280;28;20028;-61
2022/04/23 09:04:27;;;;;;;23.30;19.27;;;;;;;20.05;31.86;99822.47;5052376;28;20025;-63
2022/04/23 09:06:54;;;;;;;29.75;19.88;;;;;;;20.39;31.69;99830.28;5052420;28;20112;-62
2022/04/23 09:09:21;;;;;;;27.63;19.30;;;;;;;20.53;31.08;99831.28;5052076;28;20484;-62
2022/04/23 09:11:51;;;;;;;33.20;20.83;;;;;;;20.44;31.62;99839.53;5052506;28;20039;-63
2022/04/23 09:14:31;;;;;;;27.38;19.73;;;;;;;20.43;32.32;99826.97;5052098;28;20037;-66
2022/04/23 09:25:37;;;;;;;26.90;20.15;;;;;;;20.18;32.67;99813.66;5051536;28;20379;-62
2022/04/23 09:28:17;;;;;;;22.45;18.20;;;;;;;20.07;32.63;99812.25;5052173;28;20029;-61
2022/04/23 09:30:43;;;;;;;26.85;18.92;;;;;;;19.96;32.22;99811.88;5033990;28;20094;-62
2022/04/23 09:33:08;;;;;;;25.05;21.10;;;;;;;19.96;32.97;99806.44;5051816;28;20033;-62
2022/04/23 09:35:34;;;;;;;27.42;21.15;;;;;;;19.87;33.15;99809.22;5051722;28;20479;-62
2022/04/23 09:38:18;;;;;;;25.17;20.83;;;;;;;19.71;33.19;99790.34;5052178;28;20511;-61
2022/04/23 09:40:50;;;;;;;26.48;20.45;;;;;;;19.52;34.05;99825.13;5051935;28;20036;-62
2022/04/23 09:43:15;;;;;;;29.17;19.55;;;;;;;19.40;33.32;99800.28;5051738;28;20039;-63
2022/04/23 09:45:42;;;;;;;29.23;20.45;;;;;;;19.43;33.24;99809.94;5051132;28;20029;-60
2022/04/23 09:48:17;;;;;;;24.95;19.00;;;;;;;19.41;33.57;99810.16;5051770;28;20025;-62
2022/04/23 09:50:47;;;;;;;26.20;19.27;;;;;;;19.43;33.57;99809.94;5034181;28;20091;-63
2022/04/23 09:53:16;;;;;;;25.38;18.45;;;;;;;19.21;33.66;99809.78;5051334;28;20037;-62
2022/04/23 09:55:42;;;;;;;23.63;18.55;;;;;;;18.95;33.50;99805.50;5051232;28;20140;-62
2022/04/23 09:58:09;;;;;;;23.02;18.65;;;;;;;18.85;34.09;99807.63;5051430;28;20033;-62
2022/04/23 10:00:40;;;;;;;27.50;19.00;;;;;;;18.74;34.37;99808.88;5051591;28;20428;-62
2022/04/23 10:03:07;;;;;;;28.50;19.00;;;;;;;18.55;34.90;99796.56;5051326;28;20029;-62
2022/04/23 10:05:49;;;;;;;28.08;18.88;;;;;;;18.73;34.67;99794.44;5050927;28;20439;-61
2022/04/23 10:08:16;;;;;;;24.48;17.58;;;;;;;18.65;34.47;99805.34;5051183;28;20087;-62
2022/04/23 10:10:44;;;;;;;24.75;17.52;;;;;;;18.72;34.01;99808.19;5051061;28;20036;-62
2022/04/23 10:13:12;;;;;;;20.90;16.48;;;;;;;18.82;33.63;99797.13;5050328;28;20025;-62
2022/04/23 10:15:45;;;;;;;26.92;16.38;;;;;;;19.00;33.36;99794.16;5050590;28;20033;-63
2022/04/23 10:18:12;;;;;;;25.45;17.00;;;;;;;18.95;33.06;99783.81;5050470;28;20032;-62
2022/04/23 10:20:40;;;;;;;29.73;17.25;;;;;;;19.03;33.33;99797.34;5032590;28;20040;-63
2022/04/23 10:23:30;;;;;;;26.67;16.90;;;;;;;19.27;33.38;99789.22;5050522;28;20033;-63
2022/04/23 10:26:30;;;;;;;24.02;16.45;;;;;;;19.39;33.24;99798.59;5050906;28;20037;-64
2022/04/23 10:28:56;;;;;;;22.27;16.15;;;;;;;19.32;31.97;99793.06;5051171;28;20044;-64
2022/04/23 10:31:23;;;;;;;23.08;15.27;;;;;;;19.18;32.33;99783.84;5050451;28;20044;-62
2022/04/23 10:33:51;;;;;;;21.55;15.63;;;;;;;19.14;33.05;99781.69;5050527;28;20028;-63
2022/04/23 10:36:18;;;;;;;24.52;16.30;;;;;;;19.19;32.63;99780.13;5050984;28;20032;-63
2022/04/23 10:38:51;;;;;;;20.75;16.63;;;;;;;19.16;32.33;99760.63;5050558;28;20052;-62
2022/04/23 10:41:18;;;;;;;22.23;15.48;;;;;;;19.36;32.26;99788.97;5050965;28;20091;-62
2022/04/23 10:43:47;;;;;;;23.85;16.23;;;;;;;19.46;32.13;99793.28;5050325;28;20433;-61
2022/04/23 10:46:39;;;;;;;24.08;16.95;;;;;;;19.11;32.95;99768.47;5050559;28;20499;-62
2022/04/23 10:49:25;;;;;;;21.67;15.57;;;;;;;18.86;33.29;99782.19;5032826;28;20383;-61
2022/04/23 10:51:59;;;;;;;21.40;15.00;;;;;;;18.59;33.34;99787.09;5050609;28;20468;-61
2022/04/23 10:54:40;;;;;;;24.02;17.20;;;;;;;18.35;33.95;99776.16;5050421;28;20044;-63
2022/04/23 10:57:10;;;;;;;21.73;16.33;;;;;;;18.05;34.10;99780.50;5050541;28;20071;-62
2022/04/23 10:59:47;;;;;;;23.58;16.02;;;;;;;18.07;34.62;99751.38;5050714;28;20064;-62
2022/04/23 11:02:19;;;;;;;22.88;15.38;;;;;;;18.29;34.12;99776.88;5050090;28;20460;-61
2022/04/23 11:13:31;;;;;;;28.85;16.38;;;;;;;18.17;33.78;99768.28;5050379;28;20044;-63
2022/04/23 11:16:08;;;;;;;23.35;14.95;;;;;;;18.45;33.60;99758.84;5050736;28;20029;-62
2022/04/23 11:18:35;;;;;;;21.48;14.85;;;;;;;18.35;32.99;99759.91;5050169;28;20056;-63
2022/04/23 11:21:16;;;;;;;23.45;14.93;;;;;;;18.48;33.69;99761.22;5050246;28;20519;-65
2022/04/23 11:23:45;;;;;;;20.92;14.63;;;;;;;18.43;32.48;99752.75;5050503;28;20460;-62
2022/04/23 11:26:12;;;;;;;19.42;13.38;;;;;;;18.41;32.95;99752.06;5050690;28;20112;-62
2022/04/23 11:28:40;;;;;;;16.42;12.77;;;;;;;18.41;32.25;99742.09;5050252;28;20032;-61
2022/04/23 11:31:16;;;;;;;18.80;13.10;;;;;;;18.45;32.46;99740.72;5049705;28;20131;-62
2022/04/23 11:33:58;;;;;;;17.92;13.02;;;;;;;18.31;32.32;99736.03;5050192;28;20036;-63
2022/04/23 11:36:26;;;;;;;21.48;14.23;;;;;;;18.18;31.98;99747.44;5049932;28;20040;-62
2022/04/23 11:38:53;;;;;;;18.25;13.25;;;;;;;17.92;32.60;99738.53;5050044;28;20037;-63
2022/04/23 11:41:32;;;;;;;23.75;14.10;;;;;;;18.13;32.83;99747.97;5050015;28;20078;-63
2022/04/23 11:44:09;;;;;;;21.30;13.77;;;;;;;18.16;32.72;99739.50;5050232;28;20052;-65